createdAt,value
2019-04-28T00:00:04.334Z,70.13
2019-04-28T00:02:32.715Z,70.40
2019-04-28T00:05:01.576Z,70.46
2019-04-28T00:07:29.883Z,70.08
2019-04-28T00:09:58.258Z,69.91
2019-04-28T00:12:26.718Z,70.18
2019-04-28T00:14:55.094Z,69.65
2019-04-28T00:17:23.473Z,70.08
2019-04-28T00:19:52.620Z,69.77
2019-04-28T00:22:22.654Z,69.26
2019-04-28T00:25:01.704Z,69.83
2019-04-28T00:27:31.617Z,69.84
2019-04-28T00:30:01.950Z,69.92
2019-04-28T00:32:30.474Z,69.76
2019-04-28T00:35:02.157Z,69.83
2019-04-28T00:37:32.027Z,69.65
2019-04-28T00:40:01.091Z,69.65
2019-04-28T00:42:31.317Z,69.77
2019-04-28T00:45:01.452Z,69.96
2019-04-28T00:47:31.120Z,69.91
2019-04-28T00:49:59.616Z,69.95
2019-04-28T00:52:28.008Z,69.53
2019-04-28T00:54:56.385Z,69.79
2019-04-28T00:57:24.840Z,69.46
2019-04-28T00:59:58.011Z,69.56
2019-04-28T01:02:31.247Z,69.52
2019-04-28T01:05:01.537Z,69.53
2019-04-28T01:07:31.303Z,69.33
2019-04-28T01:10:01.402Z,69.85
2019-04-28T01:12:31.065Z,69.91
2019-04-28T01:15:02.046Z,69.81
2019-04-28T01:17:36.836Z,69.52
2019-04-28T01:20:09.791Z,70.37
2019-04-28T01:22:40.030Z,69.89
2019-04-28T01:25:08.355Z,70.05
2019-04-28T01:27:40.176Z,70.14
2019-04-28T01:30:11.275Z,70.61
2019-04-28T01:32:57.046Z,70.65
2019-04-28T01:35:25.425Z,70.52
2019-04-28T01:37:53.806Z,70.29
2019-04-28T01:40:22.322Z,70.76
2019-04-28T01:42:50.716Z,70.41
2019-04-28T01:45:20.573Z,70.37
2019-04-28T01:47:50.358Z,70.81
2019-04-28T01:50:20.501Z,70.47
2019-04-28T01:52:49.945Z,70.72
2019-04-28T01:55:20.023Z,70.63
2019-04-28T01:57:49.752Z,70.59
2019-04-28T02:00:22.956Z,70.07
2019-04-28T02:02:50.515Z,70.35
2019-04-28T02:05:19.674Z,70.46
2019-04-28T02:07:48.132Z,70.49
2019-04-28T02:10:16.494Z,70.19
2019-04-28T02:12:44.872Z,70.19
2019-04-28T02:15:13.321Z,70.60
2019-04-28T02:17:41.699Z,70.50
2019-04-28T02:20:10.472Z,69.92
2019-04-28T02:22:40.653Z,70.13
2019-04-28T02:25:09.958Z,70.00
2019-04-28T02:27:40.086Z,69.84
2019-04-28T02:30:11.395Z,70.39
2019-04-28T02:32:40.766Z,70.21
2019-04-28T02:35:10.682Z,70.42
2019-04-28T02:37:40.580Z,70.29
2019-04-28T02:40:10.576Z,70.55
2019-04-28T02:42:40.942Z,70.28
2019-04-28T02:45:11.607Z,70.23
2019-04-28T02:47:42.016Z,70.55
2019-04-28T02:50:11.637Z,70.20
2019-04-28T02:52:53.447Z,70.45
2019-04-28T02:55:21.828Z,70.34
2019-04-28T02:57:51.721Z,70.26
2019-04-28T03:00:21.591Z,70.15
2019-04-28T03:02:51.407Z,70.38
2019-04-28T03:05:21.652Z,70.02
2019-04-28T03:07:51.560Z,70.23
2019-04-28T03:10:21.313Z,70.35
2019-04-28T03:12:51.765Z,70.41
2019-04-28T03:15:20.559Z,70.21
2019-04-28T03:17:52.454Z,69.82
2019-04-28T03:20:21.067Z,69.85
2019-04-28T03:22:50.990Z,70.16
2019-04-28T03:25:26.808Z,69.91
2019-04-28T03:27:56.830Z,69.91
2019-04-28T03:30:36.143Z,69.52
2019-04-28T03:33:18.578Z,69.70
2019-04-28T03:35:44.174Z,69.77
2019-04-28T03:38:12.726Z,69.59
2019-04-28T03:40:41.584Z,69.81
2019-04-28T03:43:10.953Z,69.55
2019-04-28T03:46:00.763Z,69.60
2019-04-28T03:48:30.820Z,69.49
2019-04-28T03:51:00.638Z,69.25
2019-04-28T03:53:31.236Z,69.03
2019-04-28T03:56:01.694Z,69.14
2019-04-28T03:58:31.038Z,68.95
2019-04-28T04:01:02.690Z,68.97
2019-04-28T04:03:30.544Z,68.77
2019-04-28T04:06:00.803Z,68.78
2019-04-28T04:08:30.971Z,69.19
2019-04-28T04:11:03.924Z,69.07
2019-04-28T04:13:46.057Z,68.96
2019-04-28T04:16:31.047Z,69.17
2019-04-28T04:19:01.120Z,69.26
2019-04-28T04:21:31.008Z,69.81
2019-04-28T04:24:01.019Z,69.89
2019-04-28T04:26:31.089Z,69.45
2019-04-28T04:29:00.920Z,69.54
2019-04-28T04:31:31.829Z,69.58
2019-04-28T04:34:10.781Z,69.35
2019-04-28T04:36:41.698Z,69.28
2019-04-28T04:39:10.849Z,69.62
2019-04-28T04:41:40.877Z,69.71
2019-04-28T04:44:11.177Z,69.52
2019-04-28T04:46:41.456Z,69.91
2019-04-28T04:49:10.760Z,70.01
2019-04-28T04:51:43.356Z,69.75
2019-04-28T04:54:10.810Z,69.54
2019-04-28T04:56:40.154Z,69.64
2019-04-28T04:59:10.229Z,69.52
2019-04-28T05:01:46.573Z,69.10
2019-04-28T05:04:19.801Z,68.89
2019-04-28T05:06:49.682Z,68.78
2019-04-28T05:09:19.624Z,68.62
2019-04-28T05:11:49.800Z,68.51
2019-04-28T05:14:19.885Z,68.49
2019-04-28T05:16:49.717Z,68.35
2019-04-28T05:19:19.872Z,68.39
2019-04-28T05:21:49.804Z,68.22
2019-04-28T05:24:32.216Z,67.90
2019-04-28T05:27:00.603Z,68.30
2019-04-28T05:29:30.640Z,68.25
2019-04-28T05:32:03.139Z,67.74
2019-04-28T05:34:29.742Z,66.87
2019-04-28T05:36:58.187Z,66.24
2019-04-28T05:39:26.563Z,66.03
2019-04-28T05:41:54.972Z,65.85
2019-04-28T05:44:23.361Z,65.46
2019-04-28T05:46:51.747Z,64.70
2019-04-28T05:49:24.204Z,63.91
2019-04-28T05:51:54.216Z,63.46
2019-04-28T05:54:24.238Z,62.60
2019-04-28T05:57:02.350Z,62.85
2019-04-28T05:59:32.121Z,62.39
2019-04-28T06:02:02.145Z,61.99
2019-04-28T06:04:30.648Z,61.37
2019-04-28T06:07:00.624Z,61.11
2019-04-28T06:09:30.649Z,60.10
2019-04-28T06:12:00.166Z,60.72
2019-04-28T06:14:30.037Z,60.16
2019-04-28T06:17:00.360Z,59.89
2019-04-28T06:19:30.194Z,59.36
2019-04-28T06:21:58.611Z,59.67
2019-04-28T06:24:26.990Z,58.78
2019-04-28T06:26:55.380Z,58.06
2019-04-28T06:29:23.769Z,57.84
2019-04-28T06:31:52.151Z,56.31
2019-04-28T06:34:20.535Z,56.62
2019-04-28T06:36:48.910Z,56.12
2019-04-28T06:39:17.288Z,56.12
2019-04-28T06:41:45.666Z,56.24
2019-04-28T06:44:14.048Z,57.29
2019-04-28T06:46:42.442Z,56.56
2019-04-28T06:49:10.817Z,57.66
2019-04-28T06:51:39.192Z,58.69
2019-04-28T06:54:07.580Z,59.47
2019-04-28T06:56:36.053Z,59.54
2019-04-28T06:59:04.753Z,59.78
2019-04-28T07:01:33.203Z,59.49
2019-04-28T07:04:01.588Z,59.41
2019-04-28T07:06:29.970Z,59.15
2019-04-28T07:08:58.355Z,59.49
2019-04-28T07:11:26.838Z,58.99
2019-04-28T07:13:55.233Z,59.05
2019-04-28T07:16:23.703Z,58.57
2019-04-28T07:18:52.089Z,58.48
2019-04-28T07:21:25.067Z,58.37
2019-04-28T07:23:53.459Z,57.81
2019-04-28T07:26:21.927Z,58.63
2019-04-28T07:28:50.317Z,58.58
2019-04-28T07:31:19.770Z,57.28
2019-04-28T07:33:48.155Z,57.90
2019-04-28T07:36:16.540Z,58.22
2019-04-28T07:38:44.952Z,57.37
2019-04-28T07:41:13.337Z,58.21
2019-04-28T07:43:41.713Z,58.35
2019-04-28T07:46:10.113Z,58.18
2019-04-28T07:48:38.495Z,58.36
2019-04-28T07:51:06.878Z,58.17
2019-04-28T07:53:39.334Z,58.37
2019-04-28T07:56:07.973Z,58.46
2019-04-28T07:58:36.382Z,58.44
2019-04-28T08:01:06.405Z,59.07
2019-04-28T08:03:34.783Z,58.25
2019-04-28T08:06:03.183Z,58.73
2019-04-28T08:08:31.559Z,58.48
2019-04-28T08:10:59.940Z,58.78
2019-04-28T08:13:28.395Z,58.24
2019-04-28T08:15:56.798Z,58.12
2019-04-28T08:18:25.178Z,58.35
2019-04-28T08:20:53.556Z,58.28
2019-04-28T08:23:21.934Z,57.86
2019-04-28T08:25:50.310Z,58.35
2019-04-28T08:28:18.775Z,58.00
2019-04-28T08:30:47.159Z,57.64
2019-04-28T08:33:17.168Z,57.12
2019-04-28T08:35:45.550Z,57.08
2019-04-28T08:38:13.936Z,56.32
2019-04-28T08:40:42.349Z,56.94
2019-04-28T08:43:10.707Z,56.62
2019-04-28T08:45:39.089Z,56.43
2019-04-28T08:48:07.472Z,55.90
2019-04-28T08:50:35.935Z,56.13
2019-04-28T08:53:04.328Z,55.86
2019-04-28T08:55:32.727Z,55.88
2019-04-28T08:58:01.110Z,55.67
2019-04-28T09:00:29.720Z,55.04
2019-04-28T09:02:58.290Z,56.25
2019-04-28T09:05:26.722Z,53.68
2019-04-28T09:07:55.100Z,53.70
2019-04-28T09:10:23.506Z,54.30
2019-04-28T09:12:51.890Z,53.16
2019-04-28T09:15:20.276Z,52.28
2019-04-28T09:17:48.648Z,52.33
2019-04-28T09:20:17.041Z,52.40
2019-04-28T09:22:45.460Z,52.97
2019-04-28T09:25:13.961Z,52.03
2019-04-28T09:27:42.347Z,52.27
2019-04-28T09:30:10.887Z,53.23
2019-04-28T09:32:39.282Z,52.96
2019-04-28T09:35:08.102Z,52.45
2019-04-28T09:37:36.479Z,51.92
2019-04-28T09:40:10.961Z,52.10
2019-04-28T09:42:40.996Z,51.82
2019-04-28T09:45:13.539Z,52.00
2019-04-28T09:47:41.920Z,52.03
2019-04-28T09:50:10.359Z,51.89
2019-04-28T09:52:38.739Z,47.51
2019-04-28T09:55:07.260Z,47.94
2019-04-28T09:57:35.641Z,49.38
2019-04-28T10:00:05.952Z,50.44
2019-04-28T10:02:34.348Z,50.83
2019-04-28T10:05:02.716Z,51.31
2019-04-28T10:07:31.103Z,50.82
2019-04-28T10:09:59.485Z,51.37
2019-04-28T10:12:27.873Z,50.18
2019-04-28T10:14:56.258Z,49.98
2019-04-28T10:17:24.650Z,50.82
2019-04-28T10:19:53.150Z,50.84
2019-04-28T10:22:21.535Z,49.43
2019-04-28T10:24:49.924Z,49.25
2019-04-28T10:27:18.317Z,49.54
2019-04-28T10:29:46.748Z,50.08
2019-04-28T10:32:15.145Z,49.72
2019-04-28T10:34:54.394Z,49.07
2019-04-28T10:37:13.656Z,47.64
2019-04-28T10:39:46.126Z,48.32
2019-04-28T10:42:14.517Z,49.04
2019-04-28T10:44:44.548Z,46.29
2019-04-28T10:47:12.997Z,44.43
2019-04-28T10:49:41.453Z,44.17
2019-04-28T10:52:09.841Z,45.63
2019-04-28T10:54:38.227Z,45.77
2019-04-28T10:57:06.925Z,44.65
2019-04-28T10:59:35.303Z,44.65
2019-04-28T11:02:03.691Z,44.86
2019-04-28T11:04:39.438Z,45.40
2019-04-28T11:07:10.105Z,44.82
2019-04-28T11:09:56.661Z,45.01
2019-04-28T11:12:26.700Z,42.12
2019-04-28T11:14:55.092Z,42.22
2019-04-28T11:17:23.741Z,43.25
2019-04-28T11:19:52.123Z,43.56
2019-04-28T11:22:20.683Z,44.49
2019-04-28T11:24:49.073Z,44.75
2019-04-28T11:27:17.539Z,43.88
2019-04-28T11:29:45.921Z,43.70
2019-04-28T11:32:15.288Z,43.68
2019-04-28T11:34:57.585Z,44.54
2019-04-28T11:37:26.067Z,47.70
2019-04-28T11:39:54.922Z,48.89
2019-04-28T11:42:23.396Z,49.17
2019-04-28T11:44:51.777Z,48.84
2019-04-28T11:47:21.736Z,48.36
2019-04-28T11:49:50.171Z,48.17
2019-04-28T11:52:18.558Z,47.54
2019-04-28T11:54:47.011Z,47.21
2019-04-28T11:57:15.418Z,46.35
2019-04-28T11:59:43.794Z,46.12
2019-04-28T12:02:12.257Z,46.03
2019-04-28T12:04:40.760Z,45.66
2019-04-28T12:07:09.130Z,46.34
2019-04-28T12:09:39.149Z,46.90
2019-04-28T12:12:12.371Z,47.06
2019-04-28T12:14:42.334Z,46.08
2019-04-28T12:17:15.072Z,46.03
2019-04-28T12:19:48.008Z,46.37
2019-04-28T12:22:16.387Z,45.96
2019-04-28T12:24:44.775Z,45.33
2019-04-28T12:27:13.161Z,45.75
2019-04-28T12:29:41.558Z,46.34
2019-04-28T12:32:09.947Z,46.32
2019-04-28T12:34:38.329Z,46.43
2019-04-28T12:37:06.712Z,46.25
2019-04-28T12:39:35.132Z,46.48
2019-04-28T12:42:04.501Z,46.31
2019-04-28T12:44:32.889Z,46.61
2019-04-28T12:47:01.281Z,46.70
2019-04-28T12:49:36.954Z,46.56
2019-04-28T12:52:05.676Z,47.14
2019-04-28T12:54:35.707Z,47.08
2019-04-28T12:57:04.093Z,47.51
2019-04-28T12:59:34.123Z,47.39
2019-04-28T13:02:13.140Z,47.19
2019-04-28T13:04:43.235Z,47.45
2019-04-28T13:07:11.614Z,47.54
2019-04-28T13:09:40.094Z,47.76
2019-04-28T13:12:08.555Z,47.67
2019-04-28T13:14:36.954Z,47.71
2019-04-28T13:17:05.485Z,47.30
2019-04-28T13:19:33.874Z,47.73
2019-04-28T13:22:02.273Z,47.52
2019-04-28T13:24:32.495Z,46.84
2019-04-28T13:27:00.871Z,47.05
2019-04-28T13:29:29.278Z,46.27
2019-04-28T13:31:57.661Z,46.25
2019-04-28T13:34:27.931Z,46.28
2019-04-28T13:36:56.349Z,46.04
2019-04-28T13:39:29.342Z,45.12
2019-04-28T13:41:57.724Z,45.61
2019-04-28T13:44:43.913Z,45.46
2019-04-28T13:47:12.290Z,42.68
2019-04-28T13:49:51.273Z,43.02
2019-04-28T13:52:19.794Z,43.67
2019-04-28T13:54:49.835Z,43.59
2019-04-28T13:57:18.220Z,43.61
2019-04-28T13:59:48.242Z,42.95
2019-04-28T14:02:18.498Z,41.99
2019-04-28T14:05:04.754Z,43.14
2019-04-28T14:07:33.162Z,42.55
2019-04-28T14:10:01.495Z,42.38
2019-04-28T14:12:29.875Z,41.73
2019-04-28T14:14:58.268Z,42.65
2019-04-28T14:17:26.658Z,42.92
2019-04-28T14:19:55.149Z,41.25
2019-04-28T14:22:23.482Z,41.54
2019-04-28T14:24:51.981Z,42.19
2019-04-28T14:27:20.366Z,42.56
2019-04-28T14:29:48.779Z,40.91
2019-04-28T14:32:17.190Z,41.52
2019-04-28T14:34:45.548Z,41.19
2019-04-28T14:37:13.949Z,41.07
2019-04-28T14:39:42.342Z,41.29
2019-04-28T14:42:10.732Z,41.53
2019-04-28T14:44:39.149Z,42.30
2019-04-28T14:47:07.597Z,42.54
2019-04-28T14:49:36.371Z,42.83
2019-04-28T14:52:04.863Z,42.92
2019-04-28T14:54:33.396Z,42.66
2019-04-28T14:57:01.720Z,42.34
2019-04-28T14:59:30.135Z,42.53
2019-04-28T15:02:16.322Z,42.48
2019-04-28T15:04:49.221Z,41.78
2019-04-28T15:07:35.463Z,41.96
2019-04-28T15:10:08.141Z,42.19
2019-04-28T15:12:36.694Z,42.32
2019-04-28T15:15:08.462Z,42.17
2019-04-28T15:17:36.871Z,42.14
2019-04-28T15:20:05.605Z,42.09
2019-04-28T15:22:33.989Z,42.16
2019-04-28T15:25:02.372Z,42.13
2019-04-28T15:27:30.770Z,42.03
2019-04-28T15:29:59.152Z,42.34
2019-04-28T15:32:27.531Z,41.83
2019-04-28T15:34:55.910Z,41.74
2019-04-28T15:37:24.289Z,39.87
2019-04-28T15:39:52.679Z,41.33
2019-04-28T15:42:21.062Z,41.65
2019-04-28T15:44:49.447Z,42.97
2019-04-28T15:47:17.909Z,44.36
2019-04-28T15:49:46.295Z,44.97
2019-04-28T15:52:14.678Z,45.38
2019-04-28T15:54:43.236Z,45.57
2019-04-28T15:57:11.619Z,45.40
2019-04-28T15:59:40.008Z,44.68
2019-04-28T16:02:08.627Z,44.87
2019-04-28T16:04:37.099Z,45.01
2019-04-28T16:07:06.123Z,44.77
2019-04-28T16:09:34.569Z,44.80
2019-04-28T16:12:02.947Z,44.84
2019-04-28T16:14:31.332Z,44.92
2019-04-28T16:16:59.720Z,44.65
2019-04-28T16:19:28.099Z,44.25
2019-04-28T16:21:56.487Z,44.46
2019-04-28T16:24:24.945Z,44.46
2019-04-28T16:26:53.325Z,44.77
2019-04-28T16:29:21.710Z,44.64
2019-04-28T16:31:50.193Z,44.67
2019-04-28T16:34:18.663Z,45.04
2019-04-28T16:36:47.053Z,44.87
2019-04-28T16:39:15.529Z,44.67
2019-04-28T16:41:43.938Z,45.00
2019-04-28T16:44:12.325Z,45.21
2019-04-28T16:46:40.704Z,45.25
2019-04-28T16:49:09.095Z,45.38
2019-04-28T16:51:37.476Z,45.03
2019-04-28T16:54:05.868Z,45.17
2019-04-28T16:56:38.590Z,45.29
2019-04-28T16:59:26.711Z,45.10
2019-04-28T17:01:59.455Z,45.20
2019-04-28T17:04:27.833Z,45.30
2019-04-28T17:06:56.218Z,45.86
2019-04-28T17:09:24.764Z,45.54
2019-04-28T17:11:53.151Z,45.66
2019-04-28T17:14:21.550Z,45.93
2019-04-28T17:16:49.934Z,46.08
2019-04-28T17:19:18.329Z,46.43
2019-04-28T17:21:46.884Z,46.13
2019-04-28T17:24:15.262Z,46.45
2019-04-28T17:26:44.418Z,46.81
2019-04-28T17:29:12.801Z,46.88
2019-04-28T17:31:41.290Z,47.20
2019-04-28T17:34:09.760Z,47.69
2019-04-28T17:36:38.203Z,47.77
2019-04-28T17:39:10.001Z,47.85
2019-04-28T17:41:38.388Z,48.24
2019-04-28T17:44:07.209Z,48.20
2019-04-28T17:46:35.597Z,48.37
2019-04-28T17:49:04.245Z,48.58
2019-04-28T17:51:32.625Z,48.26
2019-04-28T17:54:01.107Z,48.52
2019-04-28T17:56:29.583Z,48.59
2019-04-28T17:58:58.071Z,48.38
2019-04-28T18:01:45.874Z,48.62
2019-04-28T18:04:32.374Z,48.79
2019-04-28T18:07:02.417Z,49.02
2019-04-28T18:09:30.796Z,49.13
2019-04-28T18:11:59.179Z,49.11
2019-04-28T18:14:27.558Z,49.45
2019-04-28T18:16:57.583Z,49.51
2019-04-28T18:19:26.833Z,49.74
2019-04-28T18:21:55.213Z,50.05
2019-04-28T18:24:24.603Z,50.18
2019-04-28T18:26:53.058Z,50.57
2019-04-28T18:29:21.432Z,50.01
2019-04-28T18:32:02.881Z,50.15
2019-04-28T18:34:35.858Z,50.08
2019-04-28T18:37:06.148Z,49.82
2019-04-28T18:39:36.169Z,49.95
2019-04-28T18:42:08.600Z,50.10
2019-04-28T18:44:41.533Z,50.52
2019-04-28T18:47:09.983Z,50.65
2019-04-28T18:49:38.369Z,50.80
2019-04-28T18:52:11.489Z,51.22
2019-04-28T18:54:40.068Z,51.34
2019-04-28T18:57:08.492Z,51.83
2019-04-28T18:59:36.869Z,51.84
2019-04-28T19:02:22.309Z,51.80
2019-04-28T19:04:50.689Z,51.59
2019-04-28T19:07:36.721Z,51.94
2019-04-28T19:10:07.385Z,52.02
2019-04-28T19:12:40.099Z,52.30
2019-04-28T19:15:32.511Z,53.28
2019-04-28T19:18:08.229Z,53.43
2019-04-28T19:20:36.605Z,53.74
2019-04-28T19:23:05.055Z,54.71
2019-04-28T19:25:39.222Z,55.15
2019-04-28T19:28:07.669Z,54.94
2019-04-28T19:30:36.080Z,54.90
2019-04-28T19:33:04.521Z,54.76
2019-04-28T19:35:32.908Z,55.18
2019-04-28T19:38:01.306Z,54.80
2019-04-28T19:40:34.396Z,54.53
2019-04-28T19:43:02.773Z,54.24
2019-04-28T19:45:33.111Z,54.07
2019-04-28T19:48:01.490Z,54.17
2019-04-28T19:50:29.871Z,54.57
2019-04-28T19:52:58.245Z,55.21
2019-04-28T19:55:33.922Z,55.33
2019-04-28T19:58:12.340Z,55.51
2019-04-28T20:00:42.424Z,55.35
2019-04-28T20:03:13.310Z,55.79
2019-04-28T20:05:41.688Z,55.80
2019-04-28T20:08:10.173Z,56.33
2019-04-28T20:10:38.612Z,56.23
2019-04-28T20:13:07.075Z,56.01
2019-04-28T20:15:35.459Z,56.04
2019-04-28T20:18:03.834Z,55.96
2019-04-28T20:20:32.312Z,56.78
2019-04-28T20:23:00.712Z,56.40
2019-04-28T20:25:34.969Z,56.43
2019-04-28T20:28:03.346Z,56.54
2019-04-28T20:30:31.782Z,56.63
2019-04-28T20:33:07.068Z,56.61
2019-04-28T20:35:31.920Z,56.71
2019-04-28T20:38:13.997Z,57.43
2019-04-28T20:40:57.737Z,57.62
2019-04-28T20:43:27.685Z,58.12
2019-04-28T20:45:56.139Z,58.67
2019-04-28T20:48:24.520Z,59.26
2019-04-28T20:50:52.910Z,59.67
2019-04-28T20:53:21.382Z,59.73
2019-04-28T20:55:49.768Z,60.48
2019-04-28T20:58:18.149Z,60.47
2019-04-28T21:00:46.543Z,60.59
2019-04-28T21:03:15.857Z,60.97
2019-04-28T21:05:44.234Z,60.79
2019-04-28T21:08:12.709Z,60.96
2019-04-28T21:10:41.099Z,60.90
2019-04-28T21:13:09.477Z,60.73
2019-04-28T21:15:37.869Z,60.44
2019-04-28T21:18:06.302Z,60.65
2019-04-28T21:20:34.676Z,60.63
2019-04-28T21:23:03.058Z,60.58
2019-04-28T21:25:31.432Z,60.58
2019-04-28T21:27:59.814Z,60.83
2019-04-28T21:30:28.190Z,61.00
2019-04-28T21:32:56.569Z,60.88
2019-04-28T21:35:25.118Z,60.89
2019-04-28T21:37:53.495Z,60.83
2019-04-28T21:40:22.239Z,60.98
2019-04-28T21:42:58.236Z,60.91
2019-04-28T21:45:44.411Z,61.04
2019-04-28T21:48:14.427Z,61.07
2019-04-28T21:50:42.804Z,61.33
2019-04-28T21:53:11.185Z,61.16
2019-04-28T21:55:39.562Z,61.05
2019-04-28T21:58:07.942Z,60.88
2019-04-28T22:00:46.534Z,60.76
2019-04-28T22:03:14.921Z,60.81
2019-04-28T22:05:43.579Z,60.86
2019-04-28T22:08:11.969Z,61.22
2019-04-28T22:10:40.348Z,61.62
2019-04-28T22:13:08.731Z,62.05
2019-04-28T22:15:37.109Z,61.76
2019-04-28T22:18:06.033Z,61.96
2019-04-28T22:20:34.415Z,62.07
2019-04-28T22:23:17.655Z,61.95
2019-04-28T22:25:34.691Z,61.83
2019-04-28T22:28:03.051Z,62.17
2019-04-28T22:30:31.409Z,62.03
2019-04-28T22:32:59.784Z,62.07
2019-04-28T22:35:28.167Z,62.03
2019-04-28T22:37:56.546Z,62.42
2019-04-28T22:40:24.929Z,62.37
2019-04-28T22:42:53.312Z,62.45
2019-04-28T22:45:21.760Z,62.57
2019-04-28T22:47:50.151Z,62.63
2019-04-28T22:50:36.268Z,62.99
2019-04-28T22:53:04.784Z,63.08
2019-04-28T22:55:34.843Z,62.91
2019-04-28T22:58:10.533Z,62.72
2019-04-28T23:00:43.581Z,62.62
2019-04-28T23:03:16.538Z,62.46
2019-04-28T23:05:44.915Z,62.67
2019-04-28T23:08:13.292Z,62.96
2019-04-28T23:10:41.752Z,62.89
2019-04-28T23:13:10.130Z,62.94
2019-04-28T23:15:38.506Z,63.01
2019-04-28T23:18:06.936Z,63.26
2019-04-28T23:20:37.038Z,63.33
2019-04-28T23:23:07.072Z,63.21
2019-04-28T23:25:35.447Z,63.38
2019-04-28T23:28:04.474Z,63.07
2019-04-28T23:30:44.487Z,63.18
2019-04-28T23:33:12.894Z,63.14
2019-04-28T23:35:41.261Z,63.29
2019-04-28T23:38:09.654Z,63.19
2019-04-28T23:40:39.741Z,63.54
2019-04-28T23:43:09.787Z,63.63
2019-04-28T23:45:38.175Z,63.69
2019-04-28T23:48:25.891Z,64.12
2019-04-28T23:51:01.616Z,64.28
2019-04-28T23:53:47.798Z,64.07
2019-04-28T23:56:16.170Z,64.22
2019-04-28T23:58:44.553Z,64.03
